sensor_id;sensor_type;location;lat;lon;timestamp;pressure;altitude;pressure_sealevel;temperature;humidity
77881;BME280;67077;50.298;18.996;2023-05-27T00:00:13;98686.75;;;10.03;59.41
77881;BME280;67077;50.298;18.996;2023-05-27T00:03:19;98689.52;;;9.98;59.68
77881;BME280;67077;50.298;18.996;2023-05-27T00:05:46;98692.52;;;9.94;59.90
77881;BME280;67077;50.298;18.996;2023-05-27T00:08:13;98695.09;;;9.91;60.50
77881;BME280;67077;50.298;18.996;2023-05-27T00:10:40;98698.65;;;9.89;60.66
77881;BME280;67077;50.298;18.996;2023-05-27T00:13:07;98694.66;;;9.87;60.79
77881;BME280;67077;50.298;18.996;2023-05-27T00:15:33;98701.35;;;9.88;60.91
77881;BME280;67077;50.298;18.996;2023-05-27T00:18:01;98698.77;;;9.91;60.86
77881;BME280;67077;50.298;18.996;2023-05-27T00:20:29;98698.81;;;9.90;60.95
77881;BME280;67077;50.298;18.996;2023-05-27T00:22:57;98697.11;;;9.88;60.87
77881;BME280;67077;50.298;18.996;2023-05-27T00:25:26;98702.50;;;9.85;60.89
77881;BME280;67077;50.298;18.996;2023-05-27T00:27:54;98695.08;;;9.80;60.92
77881;BME280;67077;50.298;18.996;2023-05-27T00:30:21;98699.64;;;9.76;60.91
77881;BME280;67077;50.298;18.996;2023-05-27T00:32:49;98699.67;;;9.71;61.03
77881;BME280;67077;50.298;18.996;2023-05-27T00:35:16;98706.75;;;9.67;61.01
77881;BME280;67077;50.298;18.996;2023-05-27T00:37:43;98705.09;;;9.61;61.25
77881;BME280;67077;50.298;18.996;2023-05-27T00:40:11;98704.59;;;9.55;61.20
77881;BME280;67077;50.298;18.996;2023-05-27T00:42:38;98706.70;;;9.50;61.28
77881;BME280;67077;50.298;18.996;2023-05-27T00:45:06;98710.65;;;9.45;61.44
77881;BME280;67077;50.298;18.996;2023-05-27T00:47:35;98712.45;;;9.39;61.56
77881;BME280;67077;50.298;18.996;2023-05-27T00:50:03;98716.77;;;9.34;61.75
77881;BME280;67077;50.298;18.996;2023-05-27T00:52:31;98717.89;;;9.29;61.89
77881;BME280;67077;50.298;18.996;2023-05-27T00:54:59;98716.27;;;9.29;61.93
77881;BME280;67077;50.298;18.996;2023-05-27T00:57:26;98713.83;;;9.30;62.09
77881;BME280;67077;50.298;18.996;2023-05-27T00:59:54;98716.77;;;9.29;62.20
77881;BME280;67077;50.298;18.996;2023-05-27T01:02:21;98714.05;;;9.26;62.21
77881;BME280;67077;50.298;18.996;2023-05-27T01:04:50;98708.71;;;9.22;62.25
77881;BME280;67077;50.298;18.996;2023-05-27T01:07:27;98709.42;;;9.18;62.47
77881;BME280;67077;50.298;18.996;2023-05-27T01:10:03;98716.92;;;9.13;62.72
77881;BME280;67077;50.298;18.996;2023-05-27T01:15:09;98712.41;;;9.00;63.04
77881;BME280;67077;50.298;18.996;2023-05-27T01:17:37;98711.33;;;8.94;63.40
77881;BME280;67077;50.298;18.996;2023-05-27T01:20:12;98707.98;;;8.89;63.63
77881;BME280;67077;50.298;18.996;2023-05-27T01:22:42;98708.63;;;8.89;63.73
77881;BME280;67077;50.298;18.996;2023-05-27T01:25:09;98707.06;;;8.90;63.78
77881;BME280;67077;50.298;18.996;2023-05-27T01:27:36;98706.10;;;8.89;63.81
77881;BME280;67077;50.298;18.996;2023-05-27T01:30:08;98705.39;;;8.86;63.89
77881;BME280;67077;50.298;18.996;2023-05-27T01:35:52;98705.08;;;8.74;64.22
77881;BME280;67077;50.298;18.996;2023-05-27T01:38:25;98706.03;;;8.67;64.53
77881;BME280;67077;50.298;18.996;2023-05-27T01:41:01;98708.98;;;8.59;64.73
77881;BME280;67077;50.298;18.996;2023-05-27T01:43:33;98708.24;;;8.53;65.01
77881;BME280;67077;50.298;18.996;2023-05-27T01:46:02;98708.48;;;8.50;65.29
77881;BME280;67077;50.298;18.996;2023-05-27T01:48:33;98705.09;;;8.48;65.36
77881;BME280;67077;50.298;18.996;2023-05-27T01:51:02;98705.11;;;8.46;65.53
77881;BME280;67077;50.298;18.996;2023-05-27T01:53:30;98705.38;;;8.42;65.71
77881;BME280;67077;50.298;18.996;2023-05-27T01:55:59;98704.08;;;8.36;66.04
77881;BME280;67077;50.298;18.996;2023-05-27T01:58:27;98702.25;;;8.30;66.12
77881;BME280;67077;50.298;18.996;2023-05-27T02:00:55;98704.33;;;8.25;66.29
77881;BME280;67077;50.298;18.996;2023-05-27T02:03:24;98704.27;;;8.20;66.55
77881;BME280;67077;50.298;18.996;2023-05-27T02:06:00;98704.77;;;8.15;66.68
77881;BME280;67077;50.298;18.996;2023-05-27T02:08:28;98710.04;;;8.13;66.97
77881;BME280;67077;50.298;18.996;2023-05-27T02:10:56;98709.80;;;8.12;67.19
77881;BME280;67077;50.298;18.996;2023-05-27T02:13:24;98714.05;;;8.12;67.06
77881;BME280;67077;50.298;18.996;2023-05-27T02:16:08;98714.11;;;8.10;67.24
77881;BME280;67077;50.298;18.996;2023-05-27T02:18:35;98717.94;;;8.06;67.28
77881;BME280;67077;50.298;18.996;2023-05-27T02:21:02;98715.11;;;8.02;67.51
77881;BME280;67077;50.298;18.996;2023-05-27T02:23:33;98716.25;;;7.97;67.70
77881;BME280;67077;50.298;18.996;2023-05-27T02:26:00;98720.85;;;7.92;67.81
77881;BME280;67077;50.298;18.996;2023-05-27T02:28:27;98720.83;;;7.86;68.00
77881;BME280;67077;50.298;18.996;2023-05-27T02:30:54;98723.46;;;7.82;68.18
77881;BME280;67077;50.298;18.996;2023-05-27T02:33:25;98730.74;;;7.79;68.28
77881;BME280;67077;50.298;18.996;2023-05-27T02:35:52;98736.80;;;7.78;68.39
77881;BME280;67077;50.298;18.996;2023-05-27T02:38:19;98741.34;;;7.76;68.60
77881;BME280;67077;50.298;18.996;2023-05-27T02:40:46;98743.69;;;7.75;68.79
77881;BME280;67077;50.298;18.996;2023-05-27T02:43:12;98742.36;;;7.72;69.00
77881;BME280;67077;50.298;18.996;2023-05-27T02:45:39;98742.54;;;7.69;69.29
77881;BME280;67077;50.298;18.996;2023-05-27T02:48:06;98740.48;;;7.67;69.35
77881;BME280;67077;50.298;18.996;2023-05-27T02:50:32;98740.13;;;7.69;69.38
77881;BME280;67077;50.298;18.996;2023-05-27T02:52:59;98742.30;;;7.71;69.58
77881;BME280;67077;50.298;18.996;2023-05-27T02:55:26;98743.67;;;7.72;69.64
77881;BME280;67077;50.298;18.996;2023-05-27T02:57:52;98748.06;;;7.71;69.71
77881;BME280;67077;50.298;18.996;2023-05-27T03:00:19;98750.23;;;7.68;69.84
77881;BME280;67077;50.298;18.996;2023-05-27T03:02:46;98749.01;;;7.65;70.10
77881;BME280;67077;50.298;18.996;2023-05-27T03:05:14;98750.52;;;7.61;70.33
77881;BME280;67077;50.298;18.996;2023-05-27T03:07:40;98757.52;;;7.58;70.68
77881;BME280;67077;50.298;18.996;2023-05-27T03:10:08;98758.67;;;7.56;70.86
77881;BME280;67077;50.298;18.996;2023-05-27T03:12:34;98757.94;;;7.59;70.86
77881;BME280;67077;50.298;18.996;2023-05-27T03:15:01;98758.80;;;7.64;70.95
77881;BME280;67077;50.298;18.996;2023-05-27T03:17:28;98760.42;;;7.67;71.18
77881;BME280;67077;50.298;18.996;2023-05-27T03:19:54;98763.86;;;7.70;71.22
77881;BME280;67077;50.298;18.996;2023-05-27T03:22:22;98770.36;;;7.72;71.43
77881;BME280;67077;50.298;18.996;2023-05-27T03:24:48;98777.69;;;7.75;71.33
77881;BME280;67077;50.298;18.996;2023-05-27T03:27:16;98778.19;;;7.79;71.34
77881;BME280;67077;50.298;18.996;2023-05-27T03:29:42;98779.77;;;7.85;71.30
77881;BME280;67077;50.298;18.996;2023-05-27T03:32:09;98778.33;;;7.91;71.45
77881;BME280;67077;50.298;18.996;2023-05-27T03:34:36;98783.71;;;7.97;71.39
77881;BME280;67077;50.298;18.996;2023-05-27T03:37:02;98781.71;;;8.02;71.37
77881;BME280;67077;50.298;18.996;2023-05-27T03:39:29;98785.66;;;8.06;71.35
77881;BME280;67077;50.298;18.996;2023-05-27T03:41:56;98794.89;;;8.10;71.27
77881;BME280;67077;50.298;18.996;2023-05-27T03:44:23;98798.55;;;8.12;71.31
77881;BME280;67077;50.298;18.996;2023-05-27T03:46:49;98801.40;;;8.17;71.27
77881;BME280;67077;50.298;18.996;2023-05-27T03:49:16;98801.13;;;8.25;71.00
77881;BME280;67077;50.298;18.996;2023-05-27T03:51:43;98802.83;;;8.39;70.93
77881;BME280;67077;50.298;18.996;2023-05-27T03:54:10;98803.35;;;8.61;70.69
77881;BME280;67077;50.298;18.996;2023-05-27T03:56:38;98801.41;;;8.85;70.12
77881;BME280;67077;50.298;18.996;2023-05-27T03:59:04;98800.72;;;9.11;69.61
77881;BME280;67077;50.298;18.996;2023-05-27T04:01:32;98803.48;;;9.35;69.11
77881;BME280;67077;50.298;18.996;2023-05-27T04:03:59;98804.36;;;9.59;68.43
77881;BME280;67077;50.298;18.996;2023-05-27T04:06:26;98803.48;;;9.80;67.75
77881;BME280;67077;50.298;18.996;2023-05-27T04:08:53;98806.27;;;10.00;66.93
77881;BME280;67077;50.298;18.996;2023-05-27T04:11:20;98803.70;;;10.11;66.46
77881;BME280;67077;50.298;18.996;2023-05-27T04:13:51;98809.89;;;10.22;66.03
77881;BME280;67077;50.298;18.996;2023-05-27T04:16:18;98813.05;;;10.34;65.71
77881;BME280;67077;50.298;18.996;2023-05-27T04:18:44;98811.15;;;10.46;65.32
77881;BME280;67077;50.298;18.996;2023-05-27T04:21:18;98811.92;;;10.62;64.92
77881;BME280;67077;50.298;18.996;2023-05-27T04:23:45;98814.60;;;10.74;64.32
77881;BME280;67077;50.298;18.996;2023-05-27T04:26:11;98807.05;;;10.92;63.77
77881;BME280;67077;50.298;18.996;2023-05-27T04:28:40;98802.80;;;11.09;63.35
77881;BME280;67077;50.298;18.996;2023-05-27T04:31:07;98808.16;;;11.25;62.79
77881;BME280;67077;50.298;18.996;2023-05-27T04:33:39;98809.86;;;11.38;62.47
77881;BME280;67077;50.298;18.996;2023-05-27T04:36:08;98812.82;;;11.55;62.25
77881;BME280;67077;50.298;18.996;2023-05-27T04:38:36;98815.11;;;11.72;61.41
77881;BME280;67077;50.298;18.996;2023-05-27T04:41:03;98814.44;;;11.83;60.42
77881;BME280;67077;50.298;18.996;2023-05-27T04:43:30;98812.27;;;11.85;59.86
77881;BME280;67077;50.298;18.996;2023-05-27T04:45:57;98809.43;;;11.86;59.77
77881;BME280;67077;50.298;18.996;2023-05-27T04:48:27;98814.52;;;11.90;59.59
77881;BME280;67077;50.298;18.996;2023-05-27T04:50:54;98817.67;;;11.94;59.06
77881;BME280;67077;50.298;18.996;2023-05-27T04:53:20;98816.27;;;11.99;58.99
77881;BME280;67077;50.298;18.996;2023-05-27T04:55:47;98815.21;;;12.01;58.97
77881;BME280;67077;50.298;18.996;2023-05-27T04:58:14;98817.16;;;12.08;59.16
77881;BME280;67077;50.298;18.996;2023-05-27T05:00:41;98814.84;;;12.20;58.71
77881;BME280;67077;50.298;18.996;2023-05-27T05:03:16;98814.03;;;12.32;58.57
77881;BME280;67077;50.298;18.996;2023-05-27T05:05:50;98813.67;;;12.43;58.29
77881;BME280;67077;50.298;18.996;2023-05-27T05:08:21;98813.64;;;12.54;58.11
77881;BME280;67077;50.298;18.996;2023-05-27T05:10:49;98810.98;;;12.68;57.43
77881;BME280;67077;50.298;18.996;2023-05-27T05:13:16;98811.36;;;12.69;57.11
77881;BME280;67077;50.298;18.996;2023-05-27T05:15:43;98812.14;;;12.73;57.14
77881;BME280;67077;50.298;18.996;2023-05-27T05:18:13;98809.73;;;12.74;56.78
77881;BME280;67077;50.298;18.996;2023-05-27T05:20:40;98809.04;;;12.82;56.78
77881;BME280;67077;50.298;18.996;2023-05-27T05:23:07;98806.63;;;12.92;56.46
77881;BME280;67077;50.298;18.996;2023-05-27T05:25:35;98808.11;;;12.96;55.57
77881;BME280;67077;50.298;18.996;2023-05-27T05:28:08;98811.04;;;12.88;55.61
77881;BME280;67077;50.298;18.996;2023-05-27T05:30:35;98811.88;;;12.83;55.69
77881;BME280;67077;50.298;18.996;2023-05-27T05:33:02;98810.42;;;12.82;56.05
77881;BME280;67077;50.298;18.996;2023-05-27T05:35:30;98808.05;;;12.83;55.82
77881;BME280;67077;50.298;18.996;2023-05-27T05:37:57;98807.35;;;12.73;55.73
77881;BME280;67077;50.298;18.996;2023-05-27T05:40:23;98808.67;;;12.74;55.90
77881;BME280;67077;50.298;18.996;2023-05-27T05:42:50;98811.70;;;12.79;55.60
77881;BME280;67077;50.298;18.996;2023-05-27T05:45:17;98812.16;;;12.85;55.48
77881;BME280;67077;50.298;18.996;2023-05-27T05:47:43;98814.83;;;12.86;55.63
77881;BME280;67077;50.298;18.996;2023-05-27T05:50:10;98816.05;;;12.84;55.34
77881;BME280;67077;50.298;18.996;2023-05-27T05:52:37;98816.98;;;12.82;55.44
77881;BME280;67077;50.298;18.996;2023-05-27T05:55:04;98817.27;;;12.83;55.61
77881;BME280;67077;50.298;18.996;2023-05-27T05:57:32;98822.39;;;12.84;55.68
77881;BME280;67077;50.298;18.996;2023-05-27T05:59:59;98824.90;;;12.77;55.51
77881;BME280;67077;50.298;18.996;2023-05-27T06:02:26;98821.47;;;12.66;55.86
77881;BME280;67077;50.298;18.996;2023-05-27T06:04:52;98821.80;;;12.59;56.13
77881;BME280;67077;50.298;18.996;2023-05-27T06:07:19;98824.30;;;12.61;56.70
77881;BME280;67077;50.298;18.996;2023-05-27T06:09:47;98823.06;;;12.65;56.72
77881;BME280;67077;50.298;18.996;2023-05-27T06:12:14;98827.06;;;12.67;56.74
77881;BME280;67077;50.298;18.996;2023-05-27T06:14:41;98823.16;;;12.64;56.47
77881;BME280;67077;50.298;18.996;2023-05-27T06:17:08;98821.69;;;12.64;56.26
77881;BME280;67077;50.298;18.996;2023-05-27T06:19:36;98821.58;;;12.71;56.44
77881;BME280;67077;50.298;18.996;2023-05-27T06:22:04;98824.50;;;12.74;56.36
77881;BME280;67077;50.298;18.996;2023-05-27T06:24:42;98826.08;;;12.76;55.73
77881;BME280;67077;50.298;18.996;2023-05-27T06:27:18;98829.42;;;12.82;55.73
77881;BME280;67077;50.298;18.996;2023-05-27T06:29:46;98828.90;;;12.88;55.84
77881;BME280;67077;50.298;18.996;2023-05-27T06:32:13;98829.29;;;12.94;55.56
77881;BME280;67077;50.298;18.996;2023-05-27T06:34:40;98829.34;;;13.00;55.25
77881;BME280;67077;50.298;18.996;2023-05-27T06:37:19;98831.01;;;13.09;55.08
77881;BME280;67077;50.298;18.996;2023-05-27T06:39:46;98834.69;;;13.14;54.38
77881;BME280;67077;50.298;18.996;2023-05-27T06:42:15;98829.67;;;13.14;54.26
77881;BME280;67077;50.298;18.996;2023-05-27T06:44:43;98830.69;;;13.13;53.96
77881;BME280;67077;50.298;18.996;2023-05-27T06:47:11;98828.52;;;13.18;54.35
77881;BME280;67077;50.298;18.996;2023-05-27T06:49:38;98831.54;;;13.25;54.37
77881;BME280;67077;50.298;18.996;2023-05-27T06:52:05;98832.69;;;13.27;54.28
77881;BME280;67077;50.298;18.996;2023-05-27T06:54:33;98827.25;;;13.28;54.56
77881;BME280;67077;50.298;18.996;2023-05-27T06:57:02;98825.14;;;13.34;54.46
77881;BME280;67077;50.298;18.996;2023-05-27T06:59:29;98826.56;;;13.39;53.86
77881;BME280;67077;50.298;18.996;2023-05-27T07:01:56;98823.80;;;13.44;53.46
77881;BME280;67077;50.298;18.996;2023-05-27T07:04:25;98826.13;;;13.47;53.38
77881;BME280;67077;50.298;18.996;2023-05-27T07:06:53;98828.83;;;13.51;53.50
77881;BME280;67077;50.298;18.996;2023-05-27T07:09:20;98825.35;;;13.56;53.65
77881;BME280;67077;50.298;18.996;2023-05-27T07:11:47;98821.59;;;13.62;53.54
77881;BME280;67077;50.298;18.996;2023-05-27T07:14:14;98825.23;;;13.67;53.03
77881;BME280;67077;50.298;18.996;2023-05-27T07:16:41;98823.77;;;13.77;53.16
77881;BME280;67077;50.298;18.996;2023-05-27T07:19:08;98824.81;;;13.94;53.22
77881;BME280;67077;50.298;18.996;2023-05-27T07:21:34;98825.73;;;14.06;52.88
77881;BME280;67077;50.298;18.996;2023-05-27T07:24:01;98827.70;;;14.15;53.18
77881;BME280;67077;50.298;18.996;2023-05-27T07:26:31;98830.86;;;14.30;52.92
77881;BME280;67077;50.298;18.996;2023-05-27T07:29:00;98826.17;;;14.43;52.65
77881;BME280;67077;50.298;18.996;2023-05-27T07:31:28;98826.50;;;14.53;52.37
77881;BME280;67077;50.298;18.996;2023-05-27T07:33:55;98826.02;;;14.62;52.34
77881;BME280;67077;50.298;18.996;2023-05-27T07:36:22;98821.52;;;14.70;52.09
77881;BME280;67077;50.298;18.996;2023-05-27T07:38:49;98822.73;;;14.81;52.16
77881;BME280;67077;50.298;18.996;2023-05-27T07:41:16;98820.92;;;14.92;51.81
77881;BME280;67077;50.298;18.996;2023-05-27T07:43:42;98819.21;;;15.00;51.60
77881;BME280;67077;50.298;18.996;2023-05-27T07:46:09;98819.36;;;15.07;51.36
77881;BME280;67077;50.298;18.996;2023-05-27T07:48:36;98826.11;;;15.09;50.84
77881;BME280;67077;50.298;18.996;2023-05-27T07:51:03;98825.02;;;15.12;50.33
77881;BME280;67077;50.298;18.996;2023-05-27T07:53:30;98823.70;;;15.08;50.06
77881;BME280;67077;50.298;18.996;2023-05-27T07:55:57;98827.06;;;15.10;50.62
77881;BME280;67077;50.298;18.996;2023-05-27T07:58:23;98827.00;;;15.14;50.84
77881;BME280;67077;50.298;18.996;2023-05-27T08:00:51;98821.98;;;15.17;50.88
77881;BME280;67077;50.298;18.996;2023-05-27T08:03:18;98823.34;;;15.19;51.48
77881;BME280;67077;50.298;18.996;2023-05-27T08:05:46;98821.44;;;15.29;51.33
77881;BME280;67077;50.298;18.996;2023-05-27T08:08:12;98816.11;;;15.40;50.63
77881;BME280;67077;50.298;18.996;2023-05-27T08:10:39;98816.18;;;15.46;49.92
77881;BME280;67077;50.298;18.996;2023-05-27T08:13:05;98821.27;;;15.53;49.15
77881;BME280;67077;50.298;18.996;2023-05-27T08:15:32;98821.21;;;15.58;48.50
77881;BME280;67077;50.298;18.996;2023-05-27T08:17:59;98820.23;;;15.60;47.71
77881;BME280;67077;50.298;18.996;2023-05-27T08:20:25;98814.10;;;15.57;47.59
77881;BME280;67077;50.298;18.996;2023-05-27T08:22:52;98818.78;;;15.52;47.48
77881;BME280;67077;50.298;18.996;2023-05-27T08:25:19;98813.31;;;15.51;48.01
77881;BME280;67077;50.298;18.996;2023-05-27T08:27:52;98815.00;;;15.59;48.12
77881;BME280;67077;50.298;18.996;2023-05-27T08:30:19;98810.24;;;15.67;47.77
77881;BME280;67077;50.298;18.996;2023-05-27T08:32:46;98809.96;;;15.73;47.91
77881;BME280;67077;50.298;18.996;2023-05-27T08:35:13;98805.48;;;15.75;47.54
77881;BME280;67077;50.298;18.996;2023-05-27T08:37:40;98799.15;;;15.77;47.83
77881;BME280;67077;50.298;18.996;2023-05-27T08:40:12;98801.77;;;15.80;47.86
77881;BME280;67077;50.298;18.996;2023-05-27T08:42:40;98797.52;;;15.83;47.79
77881;BME280;67077;50.298;18.996;2023-05-27T08:45:09;98797.85;;;15.95;47.84
77881;BME280;67077;50.298;18.996;2023-05-27T08:47:38;98792.89;;;16.11;47.45
77881;BME280;67077;50.298;18.996;2023-05-27T08:50:06;98801.44;;;16.20;46.41
77881;BME280;67077;50.298;18.996;2023-05-27T08:52:38;98797.84;;;16.25;45.25
77881;BME280;67077;50.298;18.996;2023-05-27T08:55:06;98796.06;;;16.28;45.45
77881;BME280;67077;50.298;18.996;2023-05-27T08:57:34;98796.90;;;16.32;44.98
77881;BME280;67077;50.298;18.996;2023-05-27T09:00:02;98796.20;;;16.32;44.29
77881;BME280;67077;50.298;18.996;2023-05-27T09:02:37;98799.70;;;16.30;44.41
77881;BME280;67077;50.298;18.996;2023-05-27T09:05:06;98797.52;;;16.35;44.70
77881;BME280;67077;50.298;18.996;2023-05-27T09:07:34;98797.56;;;16.38;44.45
77881;BME280;67077;50.298;18.996;2023-05-27T09:10:00;98793.12;;;16.38;44.67
77881;BME280;67077;50.298;18.996;2023-05-27T09:12:27;98790.16;;;16.42;44.76
77881;BME280;67077;50.298;18.996;2023-05-27T09:14:54;98790.60;;;16.47;44.11
77881;BME280;67077;50.298;18.996;2023-05-27T09:17:22;98792.97;;;16.46;43.36
77881;BME280;67077;50.298;18.996;2023-05-27T09:19:53;98791.08;;;16.47;43.81
77881;BME280;67077;50.298;18.996;2023-05-27T09:22:33;98788.45;;;16.52;44.18
77881;BME280;67077;50.298;18.996;2023-05-27T09:25:00;98785.89;;;16.56;43.49
77881;BME280;67077;50.298;18.996;2023-05-27T09:27:28;98781.83;;;16.53;43.72
77881;BME280;67077;50.298;18.996;2023-05-27T09:29:55;98774.19;;;16.49;43.11
77881;BME280;67077;50.298;18.996;2023-05-27T09:32:26;98769.41;;;16.37;43.11
77881;BME280;67077;50.298;18.996;2023-05-27T09:34:54;98778.73;;;16.34;43.28
77881;BME280;67077;50.298;18.996;2023-05-27T09:37:25;98775.77;;;16.31;42.74
77881;BME280;67077;50.298;18.996;2023-05-27T09:39:59;98772.99;;;16.31;43.26
77881;BME280;67077;50.298;18.996;2023-05-27T09:42:26;98774.04;;;16.35;42.57
77881;BME280;67077;50.298;18.996;2023-05-27T09:44:54;98767.97;;;16.41;43.13
77881;BME280;67077;50.298;18.996;2023-05-27T09:47:21;98764.44;;;16.47;42.82
77881;BME280;67077;50.298;18.996;2023-05-27T09:49:51;98758.61;;;16.55;42.92
77881;BME280;67077;50.298;18.996;2023-05-27T09:52:20;98764.76;;;16.64;42.45
77881;BME280;67077;50.298;18.996;2023-05-27T09:54:48;98761.83;;;16.62;42.02
77881;BME280;67077;50.298;18.996;2023-05-27T09:57:16;98765.42;;;16.65;42.27
77881;BME280;67077;50.298;18.996;2023-05-27T09:59:46;98770.77;;;16.73;41.97
77881;BME280;67077;50.298;18.996;2023-05-27T10:02:17;98769.66;;;16.79;41.27
77881;BME280;67077;50.298;18.996;2023-05-27T10:04:45;98764.42;;;16.82;41.39
77881;BME280;67077;50.298;18.996;2023-05-27T10:07:17;98762.73;;;16.85;41.17
77881;BME280;67077;50.298;18.996;2023-05-27T10:09:49;98763.80;;;16.86;40.06
77881;BME280;67077;50.298;18.996;2023-05-27T10:12:17;98765.35;;;16.80;38.94
77881;BME280;67077;50.298;18.996;2023-05-27T10:14:44;98764.31;;;16.76;38.97
77881;BME280;67077;50.298;18.996;2023-05-27T10:17:12;98760.52;;;16.75;40.18
77881;BME280;67077;50.298;18.996;2023-05-27T10:19:52;98762.15;;;16.80;40.23
77881;BME280;67077;50.298;18.996;2023-05-27T10:22:21;98756.75;;;16.83;39.85
77881;BME280;67077;50.298;18.996;2023-05-27T10:24:48;98759.95;;;16.90;39.80
77881;BME280;67077;50.298;18.996;2023-05-27T10:27:16;98757.32;;;16.96;40.06
77881;BME280;67077;50.298;18.996;2023-05-27T10:29:43;98752.31;;;16.97;40.26
77881;BME280;67077;50.298;18.996;2023-05-27T10:32:10;98758.41;;;17.01;40.10
77881;BME280;67077;50.298;18.996;2023-05-27T10:34:38;98745.78;;;17.03;39.39
77881;BME280;67077;50.298;18.996;2023-05-27T10:37:08;98749.69;;;17.11;39.65
77881;BME280;67077;50.298;18.996;2023-05-27T10:39:37;98748.52;;;17.19;39.72
77881;BME280;67077;50.298;18.996;2023-05-27T10:42:03;98745.48;;;17.26;39.38
77881;BME280;67077;50.298;18.996;2023-05-27T10:44:36;98742.33;;;17.30;38.68
77881;BME280;67077;50.298;18.996;2023-05-27T10:47:13;98738.16;;;17.36;38.30
77881;BME280;67077;50.298;18.996;2023-05-27T10:49:44;98736.84;;;17.31;37.54
77881;BME280;67077;50.298;18.996;2023-05-27T10:52:16;98734.77;;;17.31;37.52
77881;BME280;67077;50.298;18.996;2023-05-27T10:54:44;98734.90;;;17.42;37.33
77881;BME280;67077;50.298;18.996;2023-05-27T10:57:16;98731.07;;;17.52;36.93
77881;BME280;67077;50.298;18.996;2023-05-27T10:59:53;98727.90;;;17.59;34.79
77881;BME280;67077;50.298;18.996;2023-05-27T11:02:21;98728.96;;;17.63;34.80
77881;BME280;67077;50.298;18.996;2023-05-27T11:04:48;98723.67;;;17.68;34.80
77881;BME280;67077;50.298;18.996;2023-05-27T11:07:19;98728.41;;;17.72;34.01
77881;BME280;67077;50.298;18.996;2023-05-27T11:09:48;98728.24;;;17.67;32.82
77881;BME280;67077;50.298;18.996;2023-05-27T11:12:16;98725.20;;;17.64;32.92
77881;BME280;67077;50.298;18.996;2023-05-27T11:14:46;98723.52;;;17.62;33.52
77881;BME280;67077;50.298;18.996;2023-05-27T11:17:13;98723.94;;;17.64;33.72
77881;BME280;67077;50.298;18.996;2023-05-27T11:19:42;98725.70;;;17.71;34.26
77881;BME280;67077;50.298;18.996;2023-05-27T11:22:09;98723.01;;;17.78;33.96
77881;BME280;67077;50.298;18.996;2023-05-27T11:24:36;98717.14;;;17.82;33.74
77881;BME280;67077;50.298;18.996;2023-05-27T11:27:13;98715.91;;;17.88;34.18
77881;BME280;67077;50.298;18.996;2023-05-27T11:29:51;98714.97;;;17.98;33.69
77881;BME280;67077;50.298;18.996;2023-05-27T11:32:19;98712.20;;;18.04;32.88
77881;BME280;67077;50.298;18.996;2023-05-27T11:34:47;98716.61;;;18.03;31.47
77881;BME280;67077;50.298;18.996;2023-05-27T11:37:15;98718.92;;;17.99;31.49
77881;BME280;67077;50.298;18.996;2023-05-27T11:39:52;98721.73;;;18.01;31.50
77881;BME280;67077;50.298;18.996;2023-05-27T11:42:25;98713.91;;;18.01;31.93
77881;BME280;67077;50.298;18.996;2023-05-27T11:44:54;98712.59;;;18.07;31.84
77881;BME280;67077;50.298;18.996;2023-05-27T11:47:22;98709.74;;;18.11;31.90
77881;BME280;67077;50.298;18.996;2023-05-27T11:49:49;98699.20;;;18.17;32.31
77881;BME280;67077;50.298;18.996;2023-05-27T11:52:17;98706.05;;;18.30;32.24
77881;BME280;67077;50.298;18.996;2023-05-27T11:54:48;98703.18;;;18.41;31.65
77881;BME280;67077;50.298;18.996;2023-05-27T11:57:15;98699.88;;;18.44;31.18
77881;BME280;67077;50.298;18.996;2023-05-27T11:59:41;98696.07;;;18.46;31.76
77881;BME280;67077;50.298;18.996;2023-05-27T12:02:08;98690.92;;;18.52;31.87
77881;BME280;67077;50.298;18.996;2023-05-27T12:04:35;98694.40;;;18.53;31.00
77881;BME280;67077;50.298;18.996;2023-05-27T12:07:01;98692.30;;;18.55;30.57
77881;BME280;67077;50.298;18.996;2023-05-27T12:09:29;98689.48;;;18.59;30.93
77881;BME280;67077;50.298;18.996;2023-05-27T12:11:55;98689.90;;;18.68;31.56
77881;BME280;67077;50.298;18.996;2023-05-27T12:14:22;98687.86;;;18.78;31.40
77881;BME280;67077;50.298;18.996;2023-05-27T12:16:49;98678.20;;;18.85;30.97
77881;BME280;67077;50.298;18.996;2023-05-27T12:19:15;98682.38;;;18.87;31.23
77881;BME280;67077;50.298;18.996;2023-05-27T12:21:42;98680.96;;;18.86;31.50
77881;BME280;67077;50.298;18.996;2023-05-27T12:24:09;98680.52;;;18.99;31.71
77881;BME280;67077;50.298;18.996;2023-05-27T12:26:35;98676.92;;;19.06;31.75
77881;BME280;67077;50.298;18.996;2023-05-27T12:29:03;98681.88;;;19.09;31.79
77881;BME280;67077;50.298;18.996;2023-05-27T12:31:30;98682.36;;;19.01;31.53
77881;BME280;67077;50.298;18.996;2023-05-27T12:33:56;98678.73;;;18.84;31.35
77881;BME280;67077;50.298;18.996;2023-05-27T12:36:23;98684.39;;;18.81;31.86
77881;BME280;67077;50.298;18.996;2023-05-27T12:38:49;98673.37;;;18.84;31.99
77881;BME280;67077;50.298;18.996;2023-05-27T12:41:16;98670.67;;;18.88;32.06
77881;BME280;67077;50.298;18.996;2023-05-27T12:43:42;98671.36;;;18.93;31.83
77881;BME280;67077;50.298;18.996;2023-05-27T12:46:09;98672.42;;;18.87;31.79
77881;BME280;67077;50.298;18.996;2023-05-27T12:48:36;98665.72;;;18.86;32.59
77881;BME280;67077;50.298;18.996;2023-05-27T12:51:02;98665.30;;;18.94;32.97
77881;BME280;67077;50.298;18.996;2023-05-27T12:53:29;98669.59;;;18.97;33.04
77881;BME280;67077;50.298;18.996;2023-05-27T12:55:55;98669.91;;;18.96;32.48
77881;BME280;67077;50.298;18.996;2023-05-27T12:58:22;98662.20;;;18.97;32.49
77881;BME280;67077;50.298;18.996;2023-05-27T13:00:49;98657.42;;;19.00;32.43
77881;BME280;67077;50.298;18.996;2023-05-27T13:03:15;98666.55;;;19.03;31.77